Time;durP1;ratioP1;P1;durP2;ratioP2;P2;SDS_P1;SDS_P2;PMS_P1;PMS_P2;Temp;Humidity;BMP_temperature;BMP_pressure;BME280_temperature;BME280_humidity;BME280_pressure;Samples;Min_cycle;Max_cycle;Signal;HPM_P1;HPM_P2
2023/04/21 00:00:02;;;;;;;31.08;17.00;;;;;;;;;;5050829;28;20053;-60
2023/04/21 00:02:29;;;;;;;31.63;17.05;;;;;;;;;;5065636;28;20519;-59
2023/04/21 00:04:57;;;;;;;31.85;18.27;;;;;;;;;;5074747;28;20075;-59
2023/04/21 00:07:25;;;;;;;29.88;17.05;;;;;;;;;;5074876;28;20147;-58
2023/04/21 00:09:52;;;;;;;34.45;16.75;;;;;;;;;;5074510;28;20052;-57
2023/04/21 00:12:19;;;;;;;29.52;16.30;;;;;;;;;;5074759;28;20098;-59
2023/04/21 00:14:46;;;;;;;31.77;17.58;;;;;;;;;;5080262;22;20037;-53
2023/04/21 00:17:13;;;;;;;27.30;15.93;;;;;;;;;;5058443;28;20060;-57
2023/04/21 00:19:40;;;;;;;31.35;16.73;;;;;;;;;;5058166;28;20049;-56
2023/04/21 00:22:10;;;;;;;27.80;16.20;;;;;;;;;;5058261;28;20103;-56
2023/04/21 00:24:39;;;;;;;;;;;;;;;;;;5059180;28;20052;-54
2023/04/21 00:27:05;;;;;;;32.03;15.93;;;;;;;;;;5058984;28;20270;-55
2023/04/21 00:29:32;;;;;;;30.95;16.83;;;;;;;;;;5058406;28;20525;-53
2023/04/21 00:32:00;;;;;;;26.80;15.50;;;;;;;;;;5058342;28;20488;-56
2023/04/21 00:34:27;;;;;;;28.40;16.23;;;;;;;;;;5058396;28;20060;-56
2023/04/21 00:36:54;;;;;;;28.80;15.52;;;;;;;;;;5058623;28;20517;-54
2023/04/21 00:39:21;;;;;;;29.58;16.08;;;;;;;;;;5057219;28;20084;-53
2023/04/21 00:41:49;;;;;;;32.03;15.45;;;;;;;;;;5057948;28;20049;-56
2023/04/21 00:44:16;;;;;;;30.52;17.08;;;;;;;;;;5058356;28;20110;-54
2023/04/21 00:46:43;;;;;;;28.95;16.10;;;;;;;;;;5057827;28;20053;-56
2023/04/21 00:49:09;;;;;;;28.98;16.48;;;;;;;;;;5058266;28;20092;-56
2023/04/21 00:51:37;;;;;;;30.08;16.00;;;;;;;;;;5058427;28;20505;-57
2023/04/21 00:54:05;;;;;;;28.50;15.00;;;;;;;;;;5058290;28;20474;-56
2023/04/21 00:56:34;;;;;;;30.23;16.33;;;;;;;;;;5057542;28;20552;-55
2023/04/21 00:59:02;;;;;;;30.13;16.65;;;;;;;;;;5057887;28;20103;-55
2023/04/21 01:01:29;;;;;;;28.05;16.25;;;;;;;;;;5062881;28;20048;-55
2023/04/21 01:03:58;;;;;;;28.90;16.58;;;;;;;;;;5078018;28;20131;-56
2023/04/21 01:06:25;;;;;;;27.88;15.48;;;;;;;;;;5078062;28;20132;-56
2023/04/21 01:08:53;;;;;;;25.83;15.38;;;;;;;;;;5078288;28;20473;-53
2023/04/21 01:11:20;;;;;;;27.00;16.35;;;;;;;;;;5077648;28;20417;-56
2023/04/21 01:13:47;;;;;;;25.20;14.82;;;;;;;;;;5078219;28;20324;-55
2023/04/21 01:16:18;;;;;;;26.20;14.88;;;;;;;;;;5077798;28;20048;-54
2023/04/21 01:18:45;;;;;;;27.58;15.45;;;;;;;;;;5077429;28;20177;-56
2023/04/21 01:21:12;;;;;;;26.70;16.08;;;;;;;;;;5077245;28;20056;-56
2023/04/21 01:23:40;;;;;;;24.33;14.23;;;;;;;;;;5077951;28;20041;-56
2023/04/21 01:26:07;;;;;;;27.50;15.18;;;;;;;;;;5075457;28;20044;-55
2023/04/21 01:28:35;;;;;;;29.27;16.65;;;;;;;;;;5057530;28;20144;-52
2023/04/21 01:31:01;;;;;;;28.77;15.85;;;;;;;;;;5057275;28;20057;-57
2023/04/21 01:33:28;;;;;;;28.20;15.57;;;;;;;;;;5057112;28;20442;-53
2023/04/21 01:35:55;;;;;;;29.02;15.88;;;;;;;;;;5056842;28;20055;-54
2023/04/21 01:38:22;;;;;;;30.35;17.45;;;;;;;;;;5056871;28;20470;-56
2023/04/21 01:40:53;;;;;;;28.15;15.40;;;;;;;;;;5056870;28;20054;-54
2023/04/21 01:43:24;;;;;;;30.33;16.42;;;;;;;;;;5057730;28;20510;-56
2023/04/21 01:45:51;;;;;;;30.40;15.85;;;;;;;;;;5058035;28;20044;-52
2023/04/21 01:48:18;;;;;;;29.75;15.48;;;;;;;;;;5057378;28;20094;-54
2023/04/21 01:50:45;;;;;;;29.58;15.07;;;;;;;;;;5056190;28;20053;-56
2023/04/21 01:53:11;;;;;;;30.58;17.73;;;;;;;;;;5057418;28;20057;-56
2023/04/21 01:55:38;;;;;;;32.60;17.30;;;;;;;;;;5056541;28;20099;-54
2023/04/21 01:58:06;;;;;;;31.65;17.23;;;;;;;;;;5056489;28;20048;-53
2023/04/21 02:00:33;;;;;;;31.45;17.23;;;;;;;;;;5057113;28;20061;-53
2023/04/21 02:03:00;;;;;;;30.30;17.42;;;;;;;;;;5056894;28;20049;-56
2023/04/21 02:05:27;;;;;;;36.38;17.25;;;;;;;;;;5056953;28;20514;-55
2023/04/21 02:07:53;;;;;;;34.03;16.98;;;;;;;;;;5056287;28;20137;-55
2023/04/21 02:10:20;;;;;;;30.92;16.08;;;;;;;;;;5056137;28;20058;-56
2023/04/21 02:12:47;;;;;;;29.27;16.90;;;;;;;;;;5056520;28;20084;-56
2023/04/21 02:15:15;;;;;;;28.02;15.63;;;;;;;;;;5056604;28;20057;-56
2023/04/21 02:17:43;;;;;;;29.13;15.50;;;;;;;;;;5056508;28;20048;-56
2023/04/21 02:20:12;;;;;;;31.60;16.65;;;;;;;;;;5055482;28;20060;-52
2023/04/21 02:22:39;;;;;;;32.17;17.10;;;;;;;;;;5056234;28;20406;-55
2023/04/21 02:25:06;;;;;;;29.02;15.68;;;;;;;;;;5055946;28;20131;-55
2023/04/21 02:27:33;;;;;;;31.17;16.20;;;;;;;;;;5055997;28;20550;-56
2023/04/21 02:30:00;;;;;;;32.03;15.77;;;;;;;;;;5056082;28;20041;-55
2023/04/21 02:32:28;;;;;;;32.03;17.48;;;;;;;;;;5054325;28;20103;-56
2023/04/21 02:34:55;;;;;;;30.63;16.83;;;;;;;;;;5056455;28;20053;-55
2023/04/21 02:37:22;;;;;;;30.50;16.00;;;;;;;;;;5054668;28;20056;-56
2023/04/21 02:39:48;;;;;;;30.80;16.98;;;;;;;;;;5055324;28;20075;-54
2023/04/21 02:42:15;;;;;;;31.65;17.30;;;;;;;;;;5056501;28;20049;-54
2023/04/21 02:44:42;;;;;;;28.98;15.55;;;;;;;;;;5055968;28;20049;-55
2023/04/21 02:47:09;;;;;;;32.67;16.40;;;;;;;;;;5056191;28;20083;-56
2023/04/21 02:49:42;;;;;;;28.90;15.50;;;;;;;;;;5055902;28;20498;-55
2023/04/21 02:52:09;;;;;;;28.50;15.75;;;;;;;;;;5055542;28;20128;-55
2023/04/21 02:54:35;;;;;;;28.63;16.65;;;;;;;;;;5056014;28;20106;-53
2023/04/21 02:57:02;;;;;;;29.85;17.13;;;;;;;;;;5055440;28;20359;-53
2023/04/21 02:59:29;;;;;;;28.60;16.90;;;;;;;;;;5055018;28;20102;-54
2023/04/21 03:01:56;;;;;;;30.98;17.63;;;;;;;;;;5064053;28;20057;-54
2023/04/21 03:04:24;;;;;;;28.85;16.42;;;;;;;;;;5075850;28;20052;-52
2023/04/21 03:06:53;;;;;;;27.38;15.68;;;;;;;;;;5075782;28;20098;-56
2023/04/21 03:09:19;;;;;;;31.08;16.83;;;;;;;;;;5075360;28;20052;-54
2023/04/21 03:11:49;;;;;;;32.92;16.73;;;;;;;;;;5075485;28;20070;-55
2023/04/21 03:14:16;;;;;;;26.92;16.08;;;;;;;;;;5075308;28;20110;-53
2023/04/21 03:16:43;;;;;;;29.63;16.77;;;;;;;;;;5075568;28;20056;-55
2023/04/21 03:19:09;;;;;;;30.10;17.00;;;;;;;;;;5075426;28;20063;-55
2023/04/21 03:21:38;;;;;;;27.92;15.98;;;;;;;;;;5075740;28;20052;-53
2023/04/21 03:24:07;;;;;;;31.38;17.77;;;;;;;;;;5075678;28;20087;-56
2023/04/21 03:26:34;;;;;;;34.22;18.23;;;;;;;;;;5075928;28;20057;-57
2023/04/21 03:29:01;;;;;;;34.50;19.17;;;;;;;;;;5075696;28;20618;-53
2023/04/21 03:31:27;;;;;;;30.75;16.73;;;;;;;;;;5076354;28;20147;-54
2023/04/21 03:33:54;;;;;;;29.92;16.50;;;;;;;;;;5076235;28;20135;-53
2023/04/21 03:36:21;;;;;;;33.88;17.77;;;;;;;;;;5075642;28;20049;-56
2023/04/21 03:38:48;;;;;;;28.75;16.92;;;;;;;;;;5079353;28;20057;-57
2023/04/21 03:41:16;;;;;;;30.58;16.60;;;;;;;;;;5077275;28;20048;-58
2023/04/21 03:43:43;;;;;;;31.08;16.73;;;;;;;;;;5075199;28;20048;-56
2023/04/21 03:46:18;;;;;;;33.28;17.98;;;;;;;;;;5075465;28;20056;-56
2023/04/21 03:48:45;;;;;;;31.83;15.40;;;;;;;;;;5075402;28;20055;-56
2023/04/21 03:51:12;;;;;;;33.58;17.50;;;;;;;;;;5075273;28;20478;-58
2023/04/21 03:53:39;;;;;;;32.28;16.33;;;;;;;;;;5075042;28;20052;-55
2023/04/21 03:56:06;;;;;;;29.92;16.42;;;;;;;;;;5075210;28;20048;-58
2023/04/21 03:58:34;;;;;;;31.20;17.52;;;;;;;;;;5074883;28;20544;-54
2023/04/21 04:01:01;;;;;;;31.25;17.30;;;;;;;;;;5073643;28;20040;-55
2023/04/21 04:03:28;;;;;;;31.52;18.58;;;;;;;;;;5055413;28;20136;-58
2023/04/21 04:05:55;;;;;;;32.03;16.83;;;;;;;;;;5055652;28;20095;-57
2023/04/21 04:08:22;;;;;;;32.60;18.02;;;;;;;;;;5055005;28;20084;-56
2023/04/21 04:10:49;;;;;;;30.67;16.70;;;;;;;;;;5054733;28;20110;-55
2023/04/21 04:13:16;;;;;;;33.17;17.20;;;;;;;;;;5055052;28;20529;-57
2023/04/21 04:15:44;;;;;;;32.33;16.80;;;;;;;;;;5054869;28;20086;-55
2023/04/21 04:18:11;;;;;;;31.90;17.48;;;;;;;;;;5054755;28;20107;-56
2023/04/21 04:20:38;;;;;;;34.30;17.35;;;;;;;;;;5054601;28;20052;-57
2023/04/21 04:23:05;;;;;;;31.98;16.63;;;;;;;;;;5054945;28;20390;-55
2023/04/21 04:25:32;;;;;;;31.30;17.45;;;;;;;;;;5054688;28;20114;-57
2023/04/21 04:27:59;;;;;;;30.77;17.42;;;;;;;;;;5054600;28;20504;-58
2023/04/21 04:30:27;;;;;;;32.80;17.83;;;;;;;;;;5054622;28;20505;-56
2023/04/21 04:32:56;;;;;;;33.92;17.42;;;;;;;;;;5054318;28;20084;-56
2023/04/21 04:35:23;;;;;;;34.72;18.48;;;;;;;;;;5059215;28;20091;-58
2023/04/21 04:37:51;;;;;;;34.65;17.30;;;;;;;;;;5054396;28;20122;-56
2023/04/21 04:40:18;;;;;;;36.50;18.15;;;;;;;;;;5054257;28;20501;-57
2023/04/21 04:42:45;;;;;;;34.58;18.08;;;;;;;;;;5054447;28;20148;-55
2023/04/21 04:45:12;;;;;;;30.85;16.90;;;;;;;;;;5054461;28;20130;-57
2023/04/21 04:47:39;;;;;;;34.55;18.75;;;;;;;;;;5053928;28;20123;-56
2023/04/21 04:50:08;;;;;;;31.77;18.20;;;;;;;;;;5053837;28;20102;-59
2023/04/21 04:52:35;;;;;;;32.90;17.63;;;;;;;;;;5054448;28;20136;-57
2023/04/21 04:55:03;;;;;;;31.00;16.90;;;;;;;;;;5054282;28;20053;-55
2023/04/21 04:57:31;;;;;;;32.30;18.15;;;;;;;;;;5054276;28;20072;-55
2023/04/21 04:59:57;;;;;;;29.02;16.02;;;;;;;;;;5053809;28;20045;-56
2023/04/21 05:02:24;;;;;;;29.92;16.13;;;;;;;;;;5066629;28;20052;-55
2023/04/21 05:04:51;;;;;;;30.80;17.80;;;;;;;;;;5073973;28;20056;-56
2023/04/21 05:07:19;;;;;;;29.95;16.55;;;;;;;;;;5074232;28;20213;-57
2023/04/21 05:09:46;;;;;;;30.73;16.88;;;;;;;;;;5073647;28;20060;-55
2023/04/21 05:12:13;;;;;;;34.63;18.55;;;;;;;;;;5073851;28;20106;-56
2023/04/21 05:14:39;;;;;;;31.92;17.08;;;;;;;;;;5073625;28;20056;-55
2023/04/21 05:17:06;;;;;;;30.52;16.80;;;;;;;;;;5075336;28;20056;-52
2023/04/21 05:19:36;;;;;;;27.65;15.70;;;;;;;;;;5077107;28;20060;-51
2023/04/21 05:22:05;;;;;;;28.55;16.27;;;;;;;;;;5077838;28;20084;-53
2023/04/21 05:24:33;;;;;;;30.02;16.55;;;;;;;;;;5059781;28;20049;-53
2023/04/21 05:27:01;;;;;;;34.20;19.02;;;;;;;;;;5057501;28;20102;-55
2023/04/21 05:29:28;;;;;;;29.33;17.30;;;;;;;;;;5057084;28;20088;-56
2023/04/21 05:31:55;;;;;;;30.50;16.65;;;;;;;;;;5057988;28;20521;-52
2023/04/21 05:34:22;;;;;;;31.65;17.73;;;;;;;;;;5057811;28;20052;-52
2023/04/21 05:36:48;;;;;;;28.33;16.15;;;;;;;;;;5057149;28;20103;-52
2023/04/21 05:39:16;;;;;;;30.23;15.73;;;;;;;;;;5057674;28;20045;-53
2023/04/21 05:41:44;;;;;;;27.02;15.63;;;;;;;;;;5057368;28;20080;-55
2023/04/21 05:44:11;;;;;;;24.30;14.20;;;;;;;;;;5056927;28;20049;-55
2023/04/21 05:46:38;;;;;;;28.13;15.25;;;;;;;;;;5057912;28;20056;-54
2023/04/21 05:49:05;;;;;;;25.80;15.43;;;;;;;;;;5056942;28;20049;-56
2023/04/21 05:51:32;;;;;;;26.27;16.50;;;;;;;;;;5057366;28;20095;-54
2023/04/21 05:53:58;;;;;;;26.27;16.05;;;;;;;;;;5057327;28;20140;-51
2023/04/21 05:56:25;;;;;;;26.33;15.43;;;;;;;;;;5056476;28;20095;-55
2023/04/21 05:58:53;;;;;;;26.60;14.65;;;;;;;;;;5057025;28;20052;-53
2023/04/21 06:01:20;;;;;;;26.88;14.90;;;;;;;;;;5060031;28;20118;-55
2023/04/21 06:03:48;;;;;;;27.10;15.32;;;;;;;;;;5076961;28;20127;-54
2023/04/21 06:06:16;;;;;;;24.33;14.90;;;;;;;;;;5076049;28;20048;-54
2023/04/21 06:08:42;;;;;;;27.05;15.80;;;;;;;;;;5076646;28;20485;-54
2023/04/21 06:11:09;;;;;;;25.63;16.13;;;;;;;;;;5076825;28;20467;-52
2023/04/21 06:13:36;;;;;;;24.13;14.73;;;;;;;;;;5076892;28;20518;-55
2023/04/21 06:16:05;;;;;;;25.40;15.35;;;;;;;;;;5087549;22;20090;-65
2023/04/21 06:18:32;;;;;;;28.20;15.15;;;;;;;;;;5031549;28;20115;-56
2023/04/21 06:20:59;;;;;;;26.45;15.52;;;;;;;;;;5032083;28;20402;-57
2023/04/21 06:23:26;;;;;;;22.83;14.02;;;;;;;;;;5032391;28;20057;-54
2023/04/21 06:26:02;;;;;;;26.73;15.63;;;;;;;;;;5031656;28;20100;-53
2023/04/21 06:28:29;;;;;;;24.45;14.18;;;;;;;;;;5032257;28;20099;-55
2023/04/21 06:30:56;;;;;;;25.30;15.35;;;;;;;;;;5031847;28;20054;-57
2023/04/21 06:33:25;;;;;;;26.02;16.38;;;;;;;;;;5032371;28;20053;-52
2023/04/21 06:35:52;;;;;;;27.45;15.45;;;;;;;;;;5032033;28;20050;-52
2023/04/21 06:38:19;;;;;;;28.67;16.00;;;;;;;;;;5032020;28;20131;-52
2023/04/21 06:40:46;;;;;;;27.08;15.20;;;;;;;;;;5031796;28;20046;-54
2023/04/21 06:43:12;;;;;;;24.50;14.93;;;;;;;;;;5031865;28;20095;-50
2023/04/21 06:45:39;;;;;;;21.13;13.90;;;;;;;;;;5031802;28;20053;-52
2023/04/21 06:48:06;;;;;;;23.35;13.98;;;;;;;;;;5032117;28;20427;-52
2023/04/21 06:50:34;;;;;;;23.33;15.23;;;;;;;;;;5031383;28;20123;-54
2023/04/21 06:53:01;;;;;;;20.73;12.18;;;;;;;;;;5031902;28;20053;-54
2023/04/21 06:55:28;;;;;;;21.55;13.90;;;;;;;;;;5031811;28;20410;-51
2023/04/21 06:57:55;;;;;;;21.10;12.77;;;;;;;;;;5031809;28;20045;-51
2023/04/21 07:00:21;;;;;;;23.73;14.27;;;;;;;;;;5031469;28;20050;-54
2023/04/21 07:02:48;;;;;;;22.10;13.57;;;;;;;;;;5063438;28;20053;-52
2023/04/21 07:05:15;;;;;;;22.63;14.38;;;;;;;;;;5071533;28;20061;-51
2023/04/21 07:07:44;;;;;;;22.27;13.50;;;;;;;;;;5071628;28;20057;-55
2023/04/21 07:10:11;;;;;;;19.80;12.75;;;;;;;;;;5071105;28;20125;-52
2023/04/21 07:12:38;;;;;;;23.90;14.02;;;;;;;;;;5071271;28;20135;-54
2023/04/21 07:15:06;;;;;;;23.88;13.30;;;;;;;;;;5071363;28;20070;-53
2023/04/21 07:17:33;;;;;;;20.25;12.82;;;;;;;;;;5071446;28;20052;-50
2023/04/21 07:20:00;;;;;;;22.00;13.30;;;;;;;;;;5071133;28;20056;-53
2023/04/21 07:22:27;;;;;;;25.65;14.38;;;;;;;;;;5071416;28;20110;-51
2023/04/21 07:24:55;;;;;;;22.27;13.40;;;;;;;;;;5071364;28;20354;-54
2023/04/21 07:27:22;;;;;;;22.67;12.98;;;;;;;;;;5071339;28;20063;-51
2023/04/21 07:29:48;;;;;;;22.58;11.80;;;;;;;;;;5071045;28;20045;-54
2023/04/21 07:32:15;;;;;;;20.63;12.40;;;;;;;;;;5071494;28;20102;-53
2023/04/21 07:34:45;;;;;;;23.33;12.90;;;;;;;;;;5071280;28;20139;-51
2023/04/21 07:37:12;;;;;;;21.00;13.00;;;;;;;;;;5071695;28;20064;-51
2023/04/21 07:39:39;;;;;;;22.17;12.57;;;;;;;;;;5071051;28;20102;-55
2023/04/21 07:42:08;;;;;;;20.13;11.95;;;;;;;;;;5071637;28;20114;-52
2023/04/21 07:44:35;;;;;;;22.40;11.80;;;;;;;;;;5070953;28;20048;-51
2023/04/21 07:47:02;;;;;;;20.65;11.52;;;;;;;;;;5071126;28;20053;-55
2023/04/21 07:49:29;;;;;;;20.65;12.40;;;;;;;;;;5071204;28;20098;-51
2023/04/21 07:51:56;;;;;;;19.13;11.85;;;;;;;;;;5070840;28;20102;-54
2023/04/21 07:54:22;;;;;;;18.42;11.70;;;;;;;;;;5071077;28;20052;-52
2023/04/21 07:56:49;;;;;;;21.00;12.60;;;;;;;;;;5070670;28;20048;-56
2023/04/21 07:59:18;;;;;;;19.40;11.75;;;;;;;;;;5064775;28;20049;-53
2023/04/21 08:01:45;;;;;;;19.27;11.48;;;;;;;;;;5054345;28;20040;-54
2023/04/21 08:04:11;;;;;;;20.35;12.48;;;;;;;;;;5069001;28;20060;-51
2023/04/21 08:06:38;;;;;;;19.20;11.45;;;;;;;;;;5069130;28;20170;-56
2023/04/21 08:09:05;;;;;;;17.63;10.82;;;;;;;;;;5069106;28;20466;-53
2023/04/21 08:11:32;;;;;;;21.10;12.40;;;;;;;;;;5068960;28;20060;-54
2023/04/21 08:13:59;;;;;;;17.60;11.02;;;;;;;;;;5069060;28;20060;-53
2023/04/21 08:16:27;;;;;;;16.98;10.45;;;;;;;;;;5069231;28;20139;-50
2023/04/21 08:18:54;;;;;;;16.48;10.50;;;;;;;;;;5068857;28;20098;-54
2023/04/21 08:21:21;;;;;;;19.30;10.88;;;;;;;;;;5068926;28;20053;-54
2023/04/21 08:23:47;;;;;;;20.40;12.43;;;;;;;;;;5070352;28;20060;-54
2023/04/21 08:26:14;;;;;;;19.73;12.13;;;;;;;;;;5072539;28;20080;-61
2023/04/21 08:28:41;;;;;;;20.30;12.38;;;;;;;;;;5072195;28;20127;-65
2023/04/21 08:31:08;;;;;;;30.75;16.42;;;;;;;;;;5072440;28;20063;-54
2023/04/21 08:33:36;;;;;;;29.90;16.27;;;;;;;;;;5072782;28;20059;-55
2023/04/21 08:36:03;;;;;;;25.17;14.48;;;;;;;;;;5072426;28;20056;-56
2023/04/21 08:38:30;;;;;;;23.50;13.18;;;;;;;;;;5072302;28;20044;-55
2023/04/21 08:40:59;;;;;;;20.98;12.38;;;;;;;;;;5071937;28;20562;-51
2023/04/21 08:43:25;;;;;;;16.30;11.02;;;;;;;;;;5072538;28;20064;-54
2023/04/21 08:45:54;;;;;;;17.35;10.98;;;;;;;;;;5072210;28;20540;-54
2023/04/21 08:48:22;;;;;;;20.60;12.25;;;;;;;;;;5072100;28;20071;-51
2023/04/21 08:50:52;;;;;;;21.25;13.02;;;;;;;;;;5071790;28;20135;-52
2023/04/21 08:53:20;;;;;;;20.38;12.38;;;;;;;;;;5071737;28;20048;-51
2023/04/21 08:55:52;;;;;;;20.02;13.40;;;;;;;;;;5057921;28;20390;-54
2023/04/21 08:58:21;;;;;;;19.58;12.75;;;;;;;;;;5051990;28;20139;-54
2023/04/21 09:00:48;;;;;;;18.83;12.13;;;;;;;;;;5051871;28;20414;-54
2023/04/21 09:03:21;;;;;;;22.75;13.73;;;;;;;;;;5071484;28;20044;-53
2023/04/21 09:05:58;;;;;;;21.45;13.55;;;;;;;;;;5071709;28;20494;-55
2023/04/21 09:08:26;;;;;;;22.77;13.65;;;;;;;;;;5071315;28;20067;-56
2023/04/21 09:10:53;;;;;;;22.00;14.20;;;;;;;;;;5071411;28;20588;-52
2023/04/21 09:13:22;;;;;;;20.60;13.10;;;;;;;;;;5071508;28;20103;-55
2023/04/21 09:15:51;;;;;;;23.05;14.77;;;;;;;;;;5060278;28;20551;-54
2023/04/21 09:18:19;;;;;;;21.45;13.57;;;;;;;;;;5051657;28;20513;-52
2023/04/21 09:20:48;;;;;;;21.40;13.40;;;;;;;;;;5050426;28;20049;-54
2023/04/21 09:23:17;;;;;;;21.65;13.88;;;;;;;;;;5051231;28;20053;-52
2023/04/21 09:25:45;;;;;;;20.85;12.52;;;;;;;;;;5051406;28;20061;-49
2023/04/21 09:28:14;;;;;;;21.83;12.75;;;;;;;;;;5051673;28;20180;-52
2023/04/21 09:30:42;;;;;;;21.23;14.00;;;;;;;;;;5051085;28;20092;-52
2023/04/21 09:33:14;;;;;;;21.50;12.80;;;;;;;;;;5051219;28;20053;-54
2023/04/21 09:35:41;;;;;;;19.85;12.93;;;;;;;;;;5050472;28;20103;-54
2023/04/21 09:38:11;;;;;;;20.92;13.15;;;;;;;;;;5051137;28;20045;-53
2023/04/21 09:40:39;;;;;;;18.33;11.30;;;;;;;;;;5051096;28;20049;-55
2023/04/21 09:43:06;;;;;;;18.70;11.75;;;;;;;;;;5050988;28;20053;-52
2023/04/21 09:45:34;;;;;;;20.95;12.60;;;;;;;;;;5051145;28;20057;-52
2023/04/21 09:48:01;;;;;;;22.38;13.68;;;;;;;;;;5050749;28;20449;-52
2023/04/21 09:50:29;;;;;;;22.75;13.07;;;;;;;;;;5050704;28;20055;-51
2023/04/21 09:52:57;;;;;;;23.10;13.95;;;;;;;;;;5050828;28;20498;-54
2023/04/21 09:55:28;;;;;;;26.58;13.13;;;;;;;;;;5051184;28;20087;-55
2023/04/21 09:57:59;;;;;;;18.77;12.38;;;;;;;;;;5050924;28;20049;-53
2023/04/21 10:00:27;;;;;;;18.80;12.45;;;;;;;;;;5050527;28;20505;-51
2023/04/21 10:02:57;;;;;;;19.92;11.90;;;;;;;;;;5050565;28;20124;-54
2023/04/21 10:05:24;;;;;;;18.98;12.65;;;;;;;;;;5051189;28;20142;-56
2023/04/21 10:07:52;;;;;;;24.88;13.73;;;;;;;;;;5050515;28;20053;-55
2023/04/21 10:10:23;;;;;;;24.88;12.68;;;;;;;;;;5050714;28;20424;-55
2023/04/21 10:12:50;;;;;;;19.15;12.18;;;;;;;;;;5050104;28;20053;-54
2023/04/21 10:15:32;;;;;;;20.75;12.90;;;;;;;;;;5050310;28;20053;-54
2023/04/21 10:18:13;;;;;;;22.00;12.55;;;;;;;;;;5050271;28;20085;-56
2023/04/21 10:20:53;;;;;;;20.58;12.38;;;;;;;;;;5050558;28;20079;-54
2023/04/21 10:23:31;;;;;;;19.85;12.85;;;;;;;;;;5050303;28;20053;-55
2023/04/21 10:26:10;;;;;;;18.05;12.10;;;;;;;;;;5050365;28;20111;-53
2023/04/21 10:29:02;;;;;;;20.55;13.43;;;;;;;;;;5050273;28;20055;-65
2023/04/21 10:31:34;;;;;;;22.98;12.25;;;;;;;;;;5049986;28;20094;-62
2023/04/21 10:34:35;;;;;;;17.48;10.63;;;;;;;;;;5050035;28;20110;-54
2023/04/21 10:37:14;;;;;;;23.13;13.43;;;;;;;;;;5049974;28;20690;-53
2023/04/21 10:39:47;;;;;;;55.28;27.17;;;;;;;;;;5049881;28;20136;-56
2023/04/21 10:42:33;;;;;;;36.15;19.38;;;;;;;;;;5050585;28;20057;-54
2023/04/21 10:45:06;;;;;;;104.60;40.47;;;;;;;;;;5049863;28;20044;-55
2023/04/21 10:47:39;;;;;;;124.10;48.20;;;;;;;;;;5050120;28;20559;-52
2023/04/21 10:50:28;;;;;;;142.55;57.58;;;;;;;;;;5049702;28;20041;-53
2023/04/21 10:52:58;;;;;;;65.22;29.92;;;;;;;;;;5050410;28;20103;-57
2023/04/21 10:55:29;;;;;;;67.20;33.20;;;;;;;;;;5050341;28;20595;-52
2023/04/21 10:57:57;;;;;;;69.57;29.98;;;;;;;;;;5050245;28;20052;-54
2023/04/21 11:00:25;;;;;;;41.40;22.08;;;;;;;;;;5049783;28;20057;-56
2023/04/21 11:03:01;;;;;;;49.17;23.42;;;;;;;;;;5065740;28;20429;-55
2023/04/21 11:05:35;;;;;;;33.03;16.40;;;;;;;;;;5069461;28;20059;-54
2023/04/21 11:08:10;;;;;;;79.20;33.78;;;;;;;;;;5069623;28;20049;-50
2023/04/21 11:10:53;;;;;;;36.72;18.83;;;;;;;;;;5069467;28;20087;-53
2023/04/21 11:13:24;;;;;;;48.50;22.95;;;;;;;;;;5069557;28;20098;-52
2023/04/21 11:16:00;;;;;;;28.00;15.45;;;;;;;;;;5069885;28;20099;-53
2023/04/21 11:18:49;;;;;;;24.42;14.27;;;;;;;;;;5070447;28;20440;-54
2023/04/21 11:21:18;;;;;;;29.45;15.68;;;;;;;;;;5067894;28;20394;-50
2023/04/21 11:23:50;;;;;;;31.10;17.88;;;;;;;;;;5069415;28;20079;-53
2023/04/21 11:26:17;;;;;;;26.88;15.23;;;;;;;;;;5070211;28;20474;-50
2023/04/21 11:28:48;;;;;;;22.40;13.93;;;;;;;;;;5069565;28;20098;-55
2023/04/21 11:31:15;;;;;;;23.02;14.13;;;;;;;;;;5069312;28;20082;-52
2023/04/21 11:33:42;;;;;;;21.60;13.55;;;;;;;;;;5069327;28;20102;-57
2023/04/21 11:36:10;;;;;;;36.97;18.27;;;;;;;;;;5069819;28;20107;-55
2023/04/21 11:38:38;;;;;;;28.77;15.88;;;;;;;;;;5069988;28;20490;-55
2023/04/21 11:41:05;;;;;;;22.52;14.43;;;;;;;;;;5069634;28;20052;-54
2023/04/21 11:43:32;;;;;;;27.98;15.45;;;;;;;;;;5069445;28;20456;-54
2023/04/21 11:46:12;;;;;;;22.15;14.38;;;;;;;;;;5069869;28;20052;-55
2023/04/21 11:48:38;;;;;;;20.63;12.23;;;;;;;;;;5069293;28;20048;-54
2023/04/21 11:51:05;;;;;;;18.83;11.85;;;;;;;;;;5069133;28;20048;-53
2023/04/21 11:53:34;;;;;;;24.55;14.27;;;;;;;;;;5053934;28;20099;-55
2023/04/21 11:56:00;;;;;;;24.40;14.13;;;;;;;;;;5049644;28;20110;-57
2023/04/21 11:58:27;;;;;;;24.95;14.95;;;;;;;;;;5050254;28;20053;-54
2023/04/21 12:00:54;;;;;;;18.98;11.63;;;;;;;;;;5052890;28;20053;-54
2023/04/21 12:03:22;;;;;;;18.45;12.77;;;;;;;;;;5052649;28;20056;-51
2023/04/21 12:05:56;;;;;;;21.25;13.63;;;;;;;;;;5052901;28;20095;-52
2023/04/21 12:08:23;;;;;;;24.00;14.07;;;;;;;;;;5053786;28;20049;-55
2023/04/21 12:10:51;;;;;;;21.35;13.45;;;;;;;;;;5052614;28;20048;-54
2023/04/21 12:13:23;;;;;;;25.38;14.50;;;;;;;;;;5052911;28;20057;-55
2023/04/21 12:15:49;;;;;;;24.15;14.55;;;;;;;;;;5032772;28;20396;-51
2023/04/21 12:18:16;;;;;;;30.40;16.42;;;;;;;;;;5032756;28;20053;-56
2023/04/21 12:20:50;;;;;;;19.98;12.50;;;;;;;;;;5032172;28;20126;-55
2023/04/21 12:23:17;;;;;;;37.67;20.73;;;;;;;;;;5032190;28;20137;-53
2023/04/21 12:25:45;;;;;;;17.17;11.65;;;;;;;;;;5065340;22;20060;-77
2023/04/21 12:28:16;;;;;;;24.23;12.25;;;;;;;;;;5053959;28;20052;-75
2023/04/21 12:30:43;;;;;;;18.38;12.38;;;;;;;;;;5055240;28;20056;-76
2023/04/21 12:33:11;;;;;;;21.67;13.80;;;;;;;;;;5054442;28;20055;-75
2023/04/21 12:35:38;;;;;;;20.70;13.43;;;;;;;;;;5054022;28;20500;-75
2023/04/21 12:38:05;;;;;;;21.77;12.60;;;;;;;;;;5054560;28;20045;-75
2023/04/21 12:40:32;;;;;;;12.15;7.60;;;;;;;;;;5074017;28;20353;-74
2023/04/21 12:42:59;;;;;;;10.95;7.10;;;;;;;;;;5075331;28;20056;-76
2023/04/21 12:45:27;;;;;;;13.93;7.90;;;;;;;;;;5055498;28;20092;-76
2023/04/21 12:47:54;;;;;;;13.27;9.13;;;;;;;;;;5055628;28;20041;-76
2023/04/21 12:50:21;;;;;;;12.23;7.30;;;;;;;;;;5052805;28;20156;-76
2023/04/21 12:52:50;;;;;;;11.85;7.07;;;;;;;;;;5053796;28;20080;-76
2023/04/21 12:55:17;;;;;;;9.57;4.80;;;;;;;;;;5043038;28;20047;-75
2023/04/21 12:57:44;;;;;;;9.38;4.38;;;;;;;;;;5032686;28;20582;-76
2023/04/21 13:00:13;;;;;;;8.13;4.95;;;;;;;;;;5032347;28;20053;-76
2023/04/21 13:02:41;;;;;;;7.72;4.55;;;;;;;;;;5032949;28;20053;-76
2023/04/21 13:05:09;;;;;;;8.57;5.05;;;;;;;;;;5032389;28;20059;-76
2023/04/21 13:07:37;;;;;;;7.28;4.65;;;;;;;;;;5032675;28;20068;-76
2023/04/21 13:10:07;;;;;;;9.40;5.45;;;;;;;;;;5032484;28;20053;-76
2023/04/21 13:12:33;;;;;;;9.38;5.38;;;;;;;;;;5032736;28;20053;-76
2023/04/21 13:15:00;;;;;;;12.82;6.10;;;;;;;;;;5032819;28;20076;-76
2023/04/21 13:17:27;;;;;;;7.38;3.55;;;;;;;;;;5038638;28;20096;-76
2023/04/21 13:19:55;;;;;;;5.80;3.88;;;;;;;;;;5037427;28;20128;-76
2023/04/21 13:22:22;;;;;;;7.82;4.40;;;;;;;;;;5035901;28;20056;-76
2023/04/21 13:24:49;;;;;;;12.75;5.03;;;;;;;;;;5032541;28;20052;-76
2023/04/21 13:27:15;;;;;;;13.55;6.65;;;;;;;;;;5031846;28;20394;-76
2023/04/21 13:29:42;;;;;;;7.88;4.70;;;;;;;;;;5048721;28;20573;-76
2023/04/21 13:32:08;;;;;;;9.05;5.10;;;;;;;;;;5036633;28;20081;-76
2023/04/21 13:34:35;;;;;;;8.23;5.43;;;;;;;;;;5043635;28;20105;-76
2023/04/21 13:37:04;;;;;;;7.03;4.53;;;;;;;;;;5031076;28;20409;-76
2023/04/21 13:39:31;;;;;;;8.70;5.65;;;;;;;;;;5048247;28;20056;-77
2023/04/21 13:41:58;;;;;;;7.00;4.63;;;;;;;;;;5019211;28;20114;-76
2023/04/21 13:44:24;;;;;;;7.97;5.00;;;;;;;;;;5044570;28;20120;-76
2023/04/21 13:46:52;;;;;;;8.25;4.55;;;;;;;;;;5042979;28;20127;-77
2023/04/21 13:49:19;;;;;;;7.47;4.80;;;;;;;;;;5036782;28;20050;-76
2023/04/21 13:51:46;;;;;;;8.52;4.95;;;;;;;;;;5048970;28;20068;-76
2023/04/21 13:54:14;;;;;;;9.07;5.30;;;;;;;;;;5037609;28;20049;-76
2023/04/21 13:56:40;;;;;;;9.27;5.55;;;;;;;;;;5042214;28;20060;-76
2023/04/21 13:59:09;;;;;;;9.98;5.45;;;;;;;;;;5031822;28;20732;-76
2023/04/21 14:01:36;;;;;;;7.95;5.00;;;;;;;;;;5043715;28;20049;-76
2023/04/21 14:04:02;;;;;;;7.35;4.85;;;;;;;;;;5046908;28;20042;-76
2023/04/21 14:06:30;;;;;;;7.13;4.05;;;;;;;;;;5038894;28;20041;-76
2023/04/21 14:08:56;;;;;;;10.18;4.88;;;;;;;;;;5039680;28;20122;-76
2023/04/21 14:11:25;;;;;;;9.68;4.60;;;;;;;;;;5046593;28;20072;-76
2023/04/21 14:13:51;;;;;;;7.28;4.47;;;;;;;;;;5031521;28;20112;-76
2023/04/21 14:16:18;;;;;;;7.15;3.95;;;;;;;;;;5031441;28;20583;-77
2023/04/21 14:18:46;;;;;;;7.05;4.85;;;;;;;;;;5041028;28;20414;-76
2023/04/21 14:21:12;;;;;;;7.88;4.68;;;;;;;;;;5035490;28;20446;-76
2023/04/21 14:23:39;;;;;;;8.70;4.32;;;;;;;;;;5047859;28;20144;-76
2023/04/21 14:26:06;;;;;;;5.50;3.45;;;;;;;;;;5036158;28;20052;-76